createdAt,value
2017-11-10T00:00:29.161Z,97.11
2017-11-10T00:03:04.286Z,97.11
2017-11-10T00:05:39.527Z,97.12
2017-11-10T00:08:14.280Z,97.03
2017-11-10T00:10:49.311Z,97.04
2017-11-10T00:13:24.137Z,96.83
2017-11-10T00:15:59.969Z,96.73
2017-11-10T00:18:34.815Z,96.83
2017-11-10T00:21:09.872Z,97.05
2017-11-10T00:23:44.957Z,97.00
2017-11-10T00:26:20.458Z,97.11
2017-11-10T00:28:55.536Z,97.11
2017-11-10T00:31:30.352Z,97.26
2017-11-10T00:34:05.236Z,97.17
2017-11-10T00:36:40.121Z,97.27
2017-11-10T00:39:15.068Z,97.17
2017-11-10T00:41:49.788Z,97.10
2017-11-10T00:44:24.910Z,96.93
2017-11-10T00:46:59.256Z,96.76
2017-11-10T00:49:34.537Z,96.80
2017-11-10T00:52:10.448Z,96.85
2017-11-10T00:54:45.219Z,96.89
2017-11-10T00:57:20.248Z,96.77
2017-11-10T00:59:55.593Z,96.60
2017-11-10T01:02:30.451Z,96.71
2017-11-10T01:05:05.588Z,96.67
2017-11-10T01:07:40.416Z,96.65
2017-11-10T01:10:15.208Z,96.66
2017-11-10T01:12:50.313Z,96.49
2017-11-10T01:15:25.308Z,96.51
2017-11-10T01:18:00.990Z,96.60
2017-11-10T01:20:36.427Z,96.56
2017-11-10T01:23:11.778Z,96.76
2017-11-10T01:25:46.880Z,96.92
2017-11-10T01:28:21.756Z,96.87
2017-11-10T01:30:56.313Z,96.93
2017-11-10T01:33:31.676Z,96.87
2017-11-10T01:36:07.312Z,96.93
2017-11-10T01:38:41.931Z,96.94
2017-11-10T01:41:17.133Z,96.99
2017-11-10T01:43:52.974Z,97.08
2017-11-10T01:46:27.877Z,97.31
2017-11-10T01:49:02.888Z,97.58
2017-11-10T01:51:38.181Z,97.91
2017-11-10T01:54:12.932Z,98.05
2017-11-10T01:56:47.507Z,98.08
2017-11-10T01:59:21.669Z,98.20
2017-11-10T02:01:56.942Z,98.29
2017-11-10T02:04:32.222Z,98.50
2017-11-10T02:07:07.106Z,98.74
2017-11-10T02:09:42.096Z,98.77
2017-11-10T02:12:16.625Z,98.81
2017-11-10T02:14:51.043Z,98.76
2017-11-10T02:17:26.148Z,98.74
2017-11-10T02:20:01.488Z,98.63
2017-11-10T02:22:35.896Z,98.84
2017-11-10T02:25:10.926Z,98.87
2017-11-10T02:27:45.861Z,99.06
2017-11-10T02:30:20.893Z,99.22
2017-11-10T02:32:55.324Z,99.38
2017-11-10T02:35:30.092Z,99.40
2017-11-10T02:38:04.970Z,99.53
2017-11-10T02:40:39.941Z,99.60
2017-11-10T02:43:14.264Z,99.71
2017-11-10T02:45:49.637Z,100.00
2017-11-10T02:48:24.363Z,99.98
2017-11-10T02:50:58.838Z,100.00
2017-11-10T02:53:33.949Z,100.00
2017-11-10T02:56:08.524Z,100.00
2017-11-10T02:58:43.772Z,100.00
2017-11-10T03:01:18.101Z,100.00
2017-11-10T03:03:53.330Z,100.00
2017-11-10T03:06:27.753Z,100.00
2017-11-10T03:09:02.513Z,100.00
2017-11-10T03:11:37.693Z,100.00
2017-11-10T03:14:12.221Z,100.00
2017-11-10T03:16:47.436Z,100.00
2017-11-10T03:19:22.096Z,100.00
2017-11-10T03:21:57.600Z,100.00
2017-11-10T03:24:32.180Z,100.00
2017-11-10T03:27:07.404Z,100.00
2017-11-10T03:29:42.336Z,100.00
2017-11-10T03:32:17.708Z,100.00
2017-11-10T03:34:52.449Z,100.00
2017-11-10T03:37:27.424Z,100.00
2017-11-10T03:40:02.653Z,100.00
2017-11-10T03:42:37.229Z,100.00
2017-11-10T03:45:12.028Z,100.00
2017-11-10T03:47:47.025Z,100.00
2017-11-10T03:50:21.644Z,100.00
2017-11-10T03:52:57.801Z,100.00
2017-11-10T03:55:33.158Z,100.00
2017-11-10T03:58:08.237Z,100.00
2017-11-10T04:00:42.853Z,100.00
2017-11-10T04:03:17.713Z,100.00
2017-11-10T04:05:53.008Z,100.00
2017-11-10T04:08:28.160Z,100.00
2017-11-10T04:11:02.397Z,100.00
2017-11-10T04:13:37.317Z,100.00
2017-11-10T04:16:12.052Z,100.00
2017-11-10T04:18:47.241Z,100.00
2017-11-10T04:21:21.842Z,100.00
2017-11-10T04:23:56.254Z,100.00
2017-11-10T04:26:31.109Z,100.00
2017-11-10T04:29:05.738Z,100.00
2017-11-10T04:31:40.468Z,100.00
2017-11-10T04:34:15.794Z,100.00
2017-11-10T04:36:50.461Z,100.00
2017-11-10T04:39:25.773Z,100.00
2017-11-10T04:42:01.104Z,100.00
2017-11-10T04:44:35.905Z,100.00
2017-11-10T04:47:10.893Z,100.00
2017-11-10T04:49:46.281Z,100.00
2017-11-10T04:52:20.692Z,100.00
2017-11-10T04:54:55.401Z,100.00
2017-11-10T04:57:30.651Z,100.00
2017-11-10T05:00:05.764Z,100.00
2017-11-10T05:02:40.454Z,100.00
2017-11-10T05:05:15.769Z,100.00
2017-11-10T05:07:50.739Z,100.00
2017-11-10T05:10:27.020Z,100.00
2017-11-10T05:13:02.090Z,100.00
2017-11-10T05:15:37.136Z,100.00
2017-11-10T05:18:12.704Z,100.00
2017-11-10T05:20:47.428Z,100.00
2017-11-10T05:23:22.609Z,100.00
2017-11-10T05:25:57.312Z,100.00
2017-11-10T05:28:32.536Z,100.00
2017-11-10T05:31:06.810Z,100.00
2017-11-10T05:33:41.088Z,100.00
2017-11-10T05:36:15.235Z,100.00
2017-11-10T05:38:50.468Z,100.00
2017-11-10T05:41:25.091Z,100.00
2017-11-10T05:43:59.915Z,100.00
2017-11-10T05:46:34.988Z,100.00
2017-11-10T05:49:09.688Z,100.00
2017-11-10T05:51:44.228Z,100.00
2017-11-10T05:54:20.150Z,100.00
2017-11-10T05:56:55.156Z,100.00
2017-11-10T05:59:30.257Z,100.00
2017-11-10T06:02:04.102Z,100.00
2017-11-10T06:04:38.711Z,100.00
2017-11-10T06:07:13.609Z,100.00
2017-11-10T06:09:48.850Z,100.00
2017-11-10T06:12:23.656Z,100.00
2017-11-10T06:14:58.901Z,100.00
2017-11-10T06:17:33.948Z,100.00
2017-11-10T06:20:09.140Z,100.00
2017-11-10T06:22:43.711Z,100.00
2017-11-10T06:25:18.689Z,100.00
2017-11-10T06:27:53.185Z,100.00
2017-11-10T06:30:28.044Z,100.00
2017-11-10T06:33:02.907Z,100.00
2017-11-10T06:35:37.608Z,100.00
2017-11-10T06:38:12.544Z,100.00
2017-11-10T06:40:47.526Z,100.00
2017-11-10T06:43:22.191Z,100.00
2017-11-10T06:45:57.154Z,100.00
2017-11-10T06:48:32.406Z,100.00
2017-11-10T06:51:07.340Z,100.00
2017-11-10T06:53:42.037Z,100.00
2017-11-10T06:56:16.641Z,100.00
2017-11-10T06:58:51.725Z,100.00
2017-11-10T07:01:26.709Z,100.00
2017-11-10T07:04:01.648Z,100.00
2017-11-10T07:06:36.173Z,100.00
2017-11-10T07:09:11.661Z,100.00
2017-11-10T07:11:46.859Z,100.00
2017-11-10T07:14:21.988Z,100.00
2017-11-10T07:16:56.965Z,100.00
2017-11-10T07:19:31.737Z,100.00
2017-11-10T07:22:06.461Z,100.00
2017-11-10T07:24:41.452Z,100.00
2017-11-10T07:27:16.295Z,100.00
2017-11-10T07:29:51.317Z,100.00
2017-11-10T07:32:26.177Z,100.00
2017-11-10T07:35:01.865Z,100.00
2017-11-10T07:37:36.713Z,100.00
2017-11-10T07:40:12.326Z,100.00
2017-11-10T07:42:47.200Z,100.00
2017-11-10T07:45:22.129Z,100.00
2017-11-10T07:47:57.965Z,100.00
2017-11-10T07:50:33.632Z,100.00
2017-11-10T07:53:08.609Z,100.00
2017-11-10T07:55:43.498Z,100.00
2017-11-10T07:58:18.196Z,100.00
2017-11-10T08:00:53.546Z,100.00
2017-11-10T08:03:28.952Z,100.00
2017-11-10T08:06:03.722Z,100.00
2017-11-10T08:08:38.549Z,100.00
2017-11-10T08:11:13.500Z,100.00
2017-11-10T08:13:48.128Z,100.00
2017-11-10T08:16:22.962Z,100.00
2017-11-10T08:18:57.544Z,100.00
2017-11-10T08:21:32.574Z,100.00
2017-11-10T08:24:07.357Z,100.00
2017-11-10T08:26:42.399Z,100.00
2017-11-10T08:29:16.934Z,100.00
2017-11-10T08:31:51.423Z,100.00
2017-11-10T08:34:26.695Z,100.00
2017-11-10T08:37:01.392Z,100.00
2017-11-10T08:39:36.237Z,100.00
2017-11-10T08:42:11.913Z,100.00
2017-11-10T08:44:46.750Z,100.00
2017-11-10T08:47:21.661Z,100.00
2017-11-10T08:49:56.579Z,100.00
2017-11-10T08:52:30.974Z,100.00
2017-11-10T08:55:06.079Z,100.00
2017-11-10T08:57:40.761Z,100.00
2017-11-10T09:00:15.614Z,100.00
2017-11-10T09:02:50.320Z,100.00
2017-11-10T09:05:26.029Z,100.00
2017-11-10T09:08:00.657Z,100.00
2017-11-10T09:10:35.587Z,100.00
2017-11-10T09:13:10.231Z,100.00
2017-11-10T09:15:44.840Z,100.00
2017-11-10T09:18:19.408Z,100.00
2017-11-10T09:20:54.258Z,100.00
2017-11-10T09:23:29.222Z,99.87
2017-11-10T09:26:03.665Z,99.30
2017-11-10T09:28:44.406Z,99.14
2017-11-10T09:44:59.560Z,97.29
2017-11-10T09:47:39.597Z,96.60
2017-11-10T09:50:20.182Z,96.35
2017-11-10T09:52:58.509Z,95.84
2017-11-10T09:55:41.221Z,96.15
2017-11-10T09:58:29.269Z,95.80
2017-11-10T10:01:07.246Z,95.83
2017-11-10T10:03:42.837Z,95.37
2017-11-10T10:06:22.368Z,95.43
2017-11-10T10:08:58.432Z,95.30
2017-11-10T10:11:38.881Z,94.87
2017-11-10T10:14:13.965Z,94.65
2017-11-10T10:16:54.290Z,94.74
2017-11-10T10:19:29.773Z,94.59
2017-11-10T10:22:05.041Z,94.72
2017-11-10T10:24:39.381Z,94.56
2017-11-10T10:27:14.317Z,94.50
2017-11-10T10:29:49.316Z,94.23
2017-11-10T10:32:24.569Z,94.17
2017-11-10T10:34:59.558Z,93.94
2017-11-10T10:37:34.415Z,93.59
2017-11-10T10:40:08.781Z,93.82
2017-11-10T10:42:43.316Z,93.53
2017-11-10T10:45:18.362Z,93.68
2017-11-10T10:47:53.386Z,93.60
2017-11-10T10:50:28.101Z,93.86
2017-11-10T10:53:03.300Z,93.86
2017-11-10T10:55:38.245Z,93.49
2017-11-10T10:58:13.924Z,92.95
2017-11-10T11:00:48.933Z,93.18
2017-11-10T11:03:23.821Z,93.26
2017-11-10T11:05:59.369Z,93.08
2017-11-10T11:08:33.957Z,93.40
2017-11-10T11:11:08.793Z,93.42
2017-11-10T11:13:44.022Z,93.48
2017-11-10T11:16:18.961Z,93.33
2017-11-10T11:18:53.982Z,93.36
2017-11-10T11:21:28.669Z,93.55
2017-11-10T11:24:03.361Z,92.97
2017-11-10T11:26:38.617Z,92.94
2017-11-10T11:29:13.924Z,92.71
2017-11-10T11:31:49.086Z,93.06
2017-11-10T11:34:23.519Z,93.42
2017-11-10T11:36:58.553Z,93.49
2017-11-10T11:39:33.637Z,93.92
2017-11-10T11:42:07.947Z,94.16
2017-11-10T11:44:43.010Z,94.11
2017-11-10T11:47:17.845Z,94.30
2017-11-10T11:49:52.565Z,94.35
2017-11-10T11:52:27.353Z,93.75
2017-11-10T11:55:02.369Z,94.01
2017-11-10T11:57:37.166Z,93.87
2017-11-10T12:00:11.678Z,93.73
2017-11-10T12:02:47.161Z,93.51
2017-11-10T12:05:21.869Z,93.47
2017-11-10T12:07:56.988Z,93.66
2017-11-10T12:10:31.756Z,94.00
2017-11-10T12:13:06.740Z,94.12
2017-11-10T12:15:41.503Z,94.66
2017-11-10T12:18:16.327Z,94.94
2017-11-10T12:20:50.642Z,95.21
2017-11-10T12:23:25.347Z,95.17
2017-11-10T12:25:59.837Z,95.43
2017-11-10T12:28:34.625Z,95.79
2017-11-10T12:31:09.247Z,95.89
2017-11-10T12:33:44.374Z,96.24
2017-11-10T12:36:19.122Z,96.62
2017-11-10T12:38:54.089Z,96.71
2017-11-10T12:41:28.949Z,96.87
2017-11-10T12:44:03.265Z,96.96
2017-11-10T12:46:38.357Z,96.99
2017-11-10T12:49:13.090Z,97.12
2017-11-10T12:51:47.711Z,97.33
2017-11-10T12:54:22.962Z,97.61
2017-11-10T12:56:57.938Z,97.42
2017-11-10T12:59:33.761Z,96.99
2017-11-10T13:02:08.257Z,96.60
2017-11-10T13:04:43.285Z,96.18
2017-11-10T13:07:18.569Z,96.02
2017-11-10T13:09:54.138Z,95.96
2017-11-10T13:12:29.319Z,95.83
2017-11-10T13:15:04.341Z,95.53
2017-11-10T13:17:39.434Z,94.99
2017-11-10T13:20:14.724Z,95.11
2017-11-10T13:22:49.820Z,95.07
2017-11-10T13:25:25.009Z,95.05
2017-11-10T13:27:59.840Z,94.95
2017-11-10T13:30:34.642Z,94.66
2017-11-10T13:33:09.386Z,94.57
2017-11-10T13:35:44.172Z,94.60
2017-11-10T13:38:18.846Z,94.98
2017-11-10T13:40:53.652Z,95.11
2017-11-10T13:43:28.644Z,95.10
2017-11-10T13:46:03.496Z,94.99
2017-11-10T13:48:39.412Z,95.19
2017-11-10T13:51:14.329Z,95.32
2017-11-10T13:53:48.981Z,95.62
2017-11-10T13:56:23.833Z,95.72
2017-11-10T13:58:58.614Z,96.31
2017-11-10T14:01:34.508Z,95.41
2017-11-10T14:04:09.092Z,90.62
2017-11-10T14:06:44.242Z,92.16
2017-11-10T14:09:18.980Z,94.14
2017-11-10T14:11:53.585Z,93.62
2017-11-10T14:14:28.824Z,93.96
2017-11-10T14:17:03.857Z,94.61
2017-11-10T14:19:38.996Z,90.60
2017-11-10T14:22:14.162Z,89.80
2017-11-10T14:24:48.631Z,90.16
2017-11-10T14:27:23.252Z,90.29
2017-11-10T14:29:57.878Z,90.54
2017-11-10T14:32:32.658Z,90.90
2017-11-10T14:35:07.461Z,90.40
2017-11-10T14:37:42.320Z,90.10
2017-11-10T14:40:17.152Z,88.96
2017-11-10T14:42:52.003Z,89.25
2017-11-10T14:45:26.844Z,88.25
2017-11-10T14:48:01.733Z,88.48
2017-11-10T14:50:36.350Z,89.03
2017-11-10T14:53:11.245Z,89.47
2017-11-10T14:55:45.924Z,89.94
2017-11-10T14:58:20.672Z,90.59
2017-11-10T15:00:55.381Z,90.97
2017-11-10T15:03:30.083Z,90.96
2017-11-10T15:06:04.746Z,91.47
2017-11-10T15:08:39.352Z,91.70
2017-11-10T15:11:13.814Z,91.97
2017-11-10T15:13:48.841Z,91.24
2017-11-10T15:16:23.528Z,91.00
2017-11-10T15:18:58.628Z,90.98
2017-11-10T15:21:33.465Z,90.92
2017-11-10T15:24:08.152Z,90.83
2017-11-10T15:26:42.977Z,90.80
2017-11-10T15:29:18.141Z,90.85
2017-11-10T15:31:53.148Z,90.82
2017-11-10T15:34:27.721Z,91.16
2017-11-10T15:37:02.707Z,91.17
2017-11-10T15:39:37.928Z,91.23
2017-11-10T15:42:13.228Z,91.53
2017-11-10T15:44:47.332Z,91.38
2017-11-10T15:47:22.157Z,91.35
2017-11-10T15:49:56.557Z,91.58
2017-11-10T15:52:31.924Z,91.65
2017-11-10T15:55:06.785Z,91.62
2017-11-10T15:57:41.600Z,91.69
2017-11-10T16:00:16.163Z,91.54
2017-11-10T16:02:51.280Z,91.64
2017-11-10T16:05:26.030Z,91.58
2017-11-10T16:08:00.745Z,91.27
2017-11-10T16:10:35.737Z,91.09
2017-11-10T16:13:10.548Z,90.80
2017-11-10T16:15:45.065Z,90.41
2017-11-10T16:18:19.273Z,90.34
2017-11-10T16:20:54.280Z,90.16
2017-11-10T16:23:29.095Z,89.85
2017-11-10T16:26:03.865Z,89.67
2017-11-10T16:28:38.616Z,89.36
2017-11-10T16:31:13.740Z,89.34
2017-11-10T16:33:48.368Z,88.98
2017-11-10T16:36:22.725Z,88.70
2017-11-10T16:38:58.038Z,88.82
2017-11-10T16:41:32.829Z,88.86
2017-11-10T16:44:07.511Z,88.80
2017-11-10T16:46:42.134Z,88.53
2017-11-10T16:49:16.913Z,88.38
2017-11-10T16:51:51.717Z,87.97
2017-11-10T16:54:26.421Z,87.13
2017-11-10T16:57:00.957Z,86.61
2017-11-10T16:59:36.508Z,85.94
2017-11-10T17:02:11.516Z,85.44
2017-11-10T17:04:46.186Z,84.52
2017-11-10T17:07:20.981Z,83.94
2017-11-10T17:09:56.547Z,83.79
2017-11-10T17:12:31.461Z,83.82
2017-11-10T17:15:06.273Z,83.55
2017-11-10T17:17:40.901Z,83.55
2017-11-10T17:20:15.658Z,83.72
2017-11-10T17:22:50.007Z,84.29
2017-11-10T17:25:24.895Z,84.74
2017-11-10T17:27:59.581Z,84.79
2017-11-10T17:30:34.025Z,84.72
2017-11-10T17:33:09.215Z,84.82
2017-11-10T17:35:43.654Z,83.70
2017-11-10T17:38:18.173Z,83.89
2017-11-10T17:40:53.377Z,83.32
2017-11-10T17:43:27.617Z,82.96
2017-11-10T17:46:02.962Z,82.66
2017-11-10T17:48:37.909Z,81.77
2017-11-10T17:51:12.172Z,81.28
2017-11-10T17:53:46.858Z,81.39
2017-11-10T17:56:21.606Z,81.17
2017-11-10T17:58:56.568Z,81.80
2017-11-10T18:01:31.485Z,82.33
2017-11-10T18:04:05.950Z,82.28
2017-11-10T18:06:41.057Z,82.76
2017-11-10T18:09:15.837Z,82.18
2017-11-10T18:11:50.470Z,82.32
2017-11-10T18:14:25.714Z,82.06
2017-11-10T18:17:00.672Z,82.43
2017-11-10T18:19:35.517Z,82.60
2017-11-10T18:22:10.007Z,82.78
2017-11-10T18:24:44.667Z,83.18
2017-11-10T18:27:19.691Z,83.46
2017-11-10T18:29:54.381Z,83.78
2017-11-10T18:32:29.018Z,83.98
2017-11-10T18:35:04.189Z,84.14
2017-11-10T18:37:39.784Z,84.51
2017-11-10T18:40:14.352Z,84.85
2017-11-10T18:42:49.208Z,84.89
2017-11-10T18:45:24.480Z,85.11
2017-11-10T18:47:59.113Z,84.91
2017-11-10T18:50:34.193Z,84.92
2017-11-10T18:53:08.969Z,84.74
2017-11-10T18:55:48.693Z,84.54
2017-11-10T18:58:23.377Z,84.81
2017-11-10T19:00:57.651Z,85.15
2017-11-10T19:03:32.755Z,85.42
2017-11-10T19:06:07.505Z,85.78
2017-11-10T19:08:42.243Z,86.10
2017-11-10T19:11:17.250Z,86.48
2017-11-10T19:13:52.025Z,86.87
2017-11-10T19:16:26.941Z,87.06
2017-11-10T19:19:01.850Z,87.18
2017-11-10T19:21:36.769Z,87.53
2017-11-10T19:24:11.617Z,87.59
2017-11-10T19:26:46.695Z,88.19
2017-11-10T19:29:21.460Z,88.24
2017-11-10T19:31:56.690Z,88.28
2017-11-10T19:34:31.675Z,88.43
2017-11-10T19:37:06.657Z,88.77
2017-11-10T19:39:41.461Z,89.19
2017-11-10T19:42:15.985Z,89.42
2017-11-10T19:44:50.881Z,89.70
2017-11-10T19:47:25.550Z,89.86
2017-11-10T19:50:00.316Z,89.87
2017-11-10T19:52:35.033Z,89.48
2017-11-10T19:55:10.129Z,89.71
2017-11-10T19:57:44.960Z,89.05
2017-11-10T20:00:19.662Z,87.96
2017-11-10T20:02:55.161Z,87.97
2017-11-10T20:05:29.778Z,87.51
2017-11-10T20:08:04.346Z,87.64
2017-11-10T20:10:39.258Z,87.75
2017-11-10T20:13:14.922Z,87.74
2017-11-10T20:15:49.954Z,87.97
2017-11-10T20:18:24.662Z,87.13
2017-11-10T20:20:59.492Z,86.31
2017-11-10T20:23:34.502Z,86.49
2017-11-10T20:26:09.989Z,86.53
2017-11-10T20:28:44.768Z,86.70
2017-11-10T20:31:19.597Z,86.94
2017-11-10T20:33:54.299Z,87.31
2017-11-10T20:36:29.377Z,87.90
2017-11-10T20:39:03.502Z,88.46
2017-11-10T20:41:38.217Z,88.89
2017-11-10T20:44:13.065Z,89.08
2017-11-10T20:46:48.142Z,89.45
2017-11-10T20:49:23.998Z,89.90
2017-11-10T20:51:58.697Z,89.97
2017-11-10T20:54:33.301Z,90.09
2017-11-10T20:57:08.177Z,89.99
2017-11-10T20:59:42.546Z,89.52
2017-11-10T21:02:17.381Z,89.31
2017-11-10T21:04:52.266Z,89.46
2017-11-10T21:07:27.061Z,89.03
2017-11-10T21:10:01.904Z,88.59
2017-11-10T21:12:36.569Z,88.43
2017-11-10T21:15:12.124Z,88.67
2017-11-10T21:17:46.671Z,88.69
2017-11-10T21:20:21.295Z,88.84
2017-11-10T21:22:56.065Z,89.20
2017-11-10T21:25:30.704Z,89.49
2017-11-10T21:28:05.508Z,89.78
2017-11-10T21:30:40.375Z,90.13
2017-11-10T21:33:15.051Z,90.47
2017-11-10T21:35:50.105Z,90.62
2017-11-10T21:38:25.103Z,90.73
2017-11-10T21:41:00.011Z,90.68
2017-11-10T21:43:34.898Z,90.88
2017-11-10T21:46:09.899Z,91.07
2017-11-10T21:48:44.742Z,91.18
2017-11-10T21:51:20.633Z,91.26
2017-11-10T21:53:55.445Z,91.27
2017-11-10T21:56:29.836Z,91.01
2017-11-10T21:59:04.728Z,90.96
2017-11-10T22:01:39.738Z,90.73
2017-11-10T22:04:14.429Z,90.73
2017-11-10T22:06:49.212Z,90.84
2017-11-10T22:09:23.916Z,91.00
2017-11-10T22:11:58.704Z,91.13
2017-11-10T22:14:33.501Z,91.14
2017-11-10T22:17:08.501Z,91.17
2017-11-10T22:19:42.985Z,91.08
2017-11-10T22:22:18.038Z,90.94
2017-11-10T22:24:52.960Z,90.83
2017-11-10T22:27:27.675Z,90.56
2017-11-10T22:30:02.341Z,90.38
2017-11-10T22:32:37.349Z,90.35
2017-11-10T22:35:12.174Z,90.44
2017-11-10T22:37:46.780Z,90.53
2017-11-10T22:40:21.507Z,90.21
2017-11-10T22:42:57.361Z,90.05
2017-11-10T22:45:32.257Z,89.87
2017-11-10T22:48:07.022Z,89.66
2017-11-10T22:50:42.697Z,89.50
2017-11-10T22:53:17.550Z,89.44
2017-11-10T22:55:52.570Z,89.31
2017-11-10T22:58:27.530Z,89.24
2017-11-10T23:01:02.365Z,89.34
2017-11-10T23:03:37.367Z,89.38
2017-11-10T23:06:12.135Z,89.21
2017-11-10T23:08:47.994Z,89.52
2017-11-10T23:11:22.728Z,89.39
2017-11-10T23:13:57.529Z,89.32
2017-11-10T23:16:32.247Z,89.12
2017-11-10T23:19:07.181Z,89.29
2017-11-10T23:21:41.982Z,89.44
2017-11-10T23:24:17.674Z,89.53
2017-11-10T23:26:52.493Z,89.86
2017-11-10T23:29:27.169Z,89.97
2017-11-10T23:32:02.176Z,90.05
2017-11-10T23:34:36.978Z,90.16
2017-11-10T23:37:11.746Z,90.26
2017-11-10T23:39:46.448Z,90.08
2017-11-10T23:42:20.682Z,90.09
2017-11-10T23:44:55.893Z,90.03
2017-11-10T23:47:30.913Z,90.08
2017-11-10T23:50:04.998Z,90.21
2017-11-10T23:52:40.293Z,90.26
2017-11-10T23:55:15.078Z,90.08
2017-11-10T23:57:50.025Z,90.03
